createdAt,value
2022-08-14T00:01:54.676Z,9.25
2022-08-14T00:04:32.252Z,6.55
2022-08-14T00:07:08.485Z,6.53
2022-08-14T00:09:55.825Z,8.32
2022-08-14T00:12:23.604Z,7.18
2022-08-14T00:14:54.996Z,8.27
2022-08-14T00:17:22.603Z,8.38
2022-08-14T00:19:49.337Z,6.32
2022-08-14T00:22:44.433Z,8.00
2022-08-14T00:25:07.603Z,7.68
2022-08-14T00:27:37.854Z,8.23
2022-08-14T00:30:10.897Z,7.78
2022-08-14T00:32:52.105Z,7.32
2022-08-14T00:36:37.489Z,7.10
2022-08-14T00:38:11.263Z,6.55
2022-08-14T00:40:37.801Z,6.88
2022-08-14T00:43:06.467Z,7.07
2022-08-14T00:45:33.354Z,8.00
2022-08-14T00:48:00.384Z,7.47
2022-08-14T00:50:31.085Z,9.05
2022-08-14T00:53:00.287Z,7.00
2022-08-14T00:55:28.640Z,7.47
2022-08-14T00:58:17.482Z,7.50
2022-08-14T01:00:51.068Z,6.47
2022-08-14T01:03:25.994Z,6.65
2022-08-14T01:05:52.985Z,7.30
2022-08-14T01:08:51.272Z,7.05
2022-08-14T01:11:19.000Z,7.45
2022-08-14T01:13:55.776Z,9.25
2022-08-14T01:16:27.933Z,7.20
2022-08-14T01:19:15.913Z,7.20
2022-08-14T01:21:47.000Z,8.82
2022-08-14T01:24:19.276Z,8.63
2022-08-14T01:26:53.389Z,8.48
2022-08-14T01:29:36.452Z,7.22
2022-08-14T01:32:10.354Z,7.13
2022-08-14T01:35:20.918Z,8.05
2022-08-14T01:37:24.804Z,7.82
2022-08-14T01:39:54.250Z,7.75
2022-08-14T01:42:32.060Z,7.72
2022-08-14T01:45:17.914Z,7.65
2022-08-14T01:47:52.310Z,7.72
2022-08-14T01:50:30.525Z,7.35
2022-08-14T01:53:00.431Z,8.18
2022-08-14T01:55:32.328Z,8.63
2022-08-14T01:58:19.870Z,8.00
2022-08-14T02:00:54.698Z,8.48
2022-08-14T02:03:23.613Z,8.48
2022-08-14T02:05:50.253Z,8.55
2022-08-14T02:08:22.596Z,9.18
2022-08-14T02:11:20.260Z,8.63
2022-08-14T02:13:50.468Z,8.75
2022-08-14T02:18:49.861Z,9.23
2022-08-14T02:21:19.395Z,8.52
2022-08-14T02:23:53.705Z,8.30
2022-08-14T02:26:29.147Z,8.55
2022-08-14T02:29:00.392Z,8.13
2022-08-14T02:31:43.603Z,8.77
2022-08-14T02:34:22.032Z,8.52
2022-08-14T02:37:03.384Z,9.10
2022-08-14T02:39:36.218Z,9.45
2022-08-14T02:42:06.569Z,8.63
2022-08-14T02:44:49.051Z,9.88
2022-08-14T02:47:19.165Z,8.93
2022-08-14T02:49:54.759Z,8.65
2022-08-14T02:52:55.555Z,9.25
2022-08-14T02:55:09.346Z,8.88
2022-08-14T02:57:39.858Z,9.20
2022-08-14T03:00:10.175Z,8.32
2022-08-14T03:02:56.558Z,9.25
2022-08-14T03:05:24.309Z,9.52
2022-08-14T03:07:52.869Z,8.75
2022-08-14T03:10:25.793Z,9.32
2022-08-14T03:13:00.751Z,9.55
2022-08-14T03:15:27.519Z,10.23
2022-08-14T03:17:57.488Z,9.50
2022-08-14T03:20:30.439Z,9.68
2022-08-14T03:23:00.295Z,10.48
2022-08-14T03:25:33.380Z,11.30
2022-08-14T03:28:04.116Z,9.88
2022-08-14T03:30:40.040Z,10.25
2022-08-14T03:33:10.855Z,9.70
2022-08-14T03:36:05.463Z,9.85
2022-08-14T03:39:14.715Z,10.35
2022-08-14T03:41:23.701Z,11.35
2022-08-14T03:43:57.770Z,9.90
2022-08-14T03:46:52.856Z,10.57
2022-08-14T03:49:28.312Z,10.68
2022-08-14T03:51:55.963Z,9.95
2022-08-14T03:54:24.524Z,9.73
2022-08-14T03:56:51.266Z,10.60
2022-08-14T03:59:19.622Z,12.25
2022-08-14T04:01:58.115Z,10.55
2022-08-14T04:04:30.337Z,9.88
2022-08-14T04:06:58.789Z,10.32
2022-08-14T04:09:26.771Z,12.00
2022-08-14T04:11:54.097Z,10.48
2022-08-14T04:14:22.746Z,10.43
2022-08-14T04:16:50.416Z,11.00
2022-08-14T04:19:20.510Z,10.68
2022-08-14T04:22:02.302Z,10.77
2022-08-14T04:24:37.643Z,10.75
2022-08-14T04:27:11.588Z,10.77
2022-08-14T04:29:42.666Z,10.75
2022-08-14T04:32:58.814Z,10.82
2022-08-14T04:35:07.180Z,10.88
2022-08-14T04:37:53.610Z,10.77
2022-08-14T04:40:40.224Z,11.00
2022-08-14T04:43:25.874Z,10.95
2022-08-14T04:45:53.059Z,11.63
2022-08-14T04:48:39.768Z,11.35
2022-08-14T04:51:20.478Z,11.20
2022-08-14T04:53:50.131Z,11.15
2022-08-14T04:56:31.366Z,11.07
2022-08-14T04:59:09.556Z,10.85
2022-08-14T05:01:39.832Z,11.88
2022-08-14T05:04:08.229Z,11.23
2022-08-14T05:06:38.747Z,11.60
2022-08-14T05:09:07.215Z,11.07
2022-08-14T05:11:37.208Z,10.55
2022-08-14T05:14:42.648Z,12.48
2022-08-14T05:16:52.231Z,11.02
2022-08-14T05:19:27.211Z,12.15
2022-08-14T05:22:17.189Z,11.43
2022-08-14T05:24:50.374Z,11.43
2022-08-14T05:27:22.789Z,18.27
2022-08-14T05:29:53.846Z,11.63
2022-08-14T05:32:23.450Z,11.32
2022-08-14T05:34:57.758Z,10.32
2022-08-14T05:37:24.468Z,11.55
2022-08-14T05:39:53.460Z,11.52
2022-08-14T05:42:22.132Z,12.02
2022-08-14T05:44:55.442Z,11.73
2022-08-14T05:47:22.825Z,11.52
2022-08-14T05:49:51.497Z,12.30
2022-08-14T05:52:18.762Z,11.35
2022-08-14T05:54:53.279Z,12.00
2022-08-14T05:57:20.734Z,11.60
2022-08-14T05:59:48.051Z,12.15
2022-08-14T06:02:14.631Z,12.02
2022-08-14T06:04:48.208Z,12.45
2022-08-14T06:07:16.190Z,13.50
2022-08-14T06:09:43.447Z,13.10
2022-08-14T06:12:55.340Z,11.98
2022-08-14T06:15:08.045Z,13.02
2022-08-14T06:17:55.862Z,11.70
2022-08-14T06:20:28.172Z,11.52
2022-08-14T06:22:55.548Z,11.73
2022-08-14T06:25:23.089Z,11.13
2022-08-14T06:27:50.052Z,12.15
2022-08-14T06:30:19.643Z,10.50
2022-08-14T06:32:47.222Z,10.32
2022-08-14T06:35:23.650Z,10.55
2022-08-14T06:37:58.900Z,11.60
2022-08-14T06:40:40.288Z,10.27
2022-08-14T06:43:11.675Z,10.82
2022-08-14T06:45:44.181Z,11.32
2022-08-14T06:48:24.031Z,11.55
2022-08-14T06:50:53.845Z,10.43
2022-08-14T06:53:21.334Z,10.68
2022-08-14T06:55:58.371Z,10.68
2022-08-14T06:58:31.255Z,12.82
2022-08-14T07:01:23.111Z,10.15
2022-08-14T07:04:22.636Z,10.15
2022-08-14T07:06:50.380Z,10.95
2022-08-14T07:09:23.031Z,10.60
2022-08-14T07:11:50.731Z,9.68
2022-08-14T07:14:17.687Z,10.60
2022-08-14T07:16:44.462Z,10.00
2022-08-14T07:19:11.436Z,11.55
2022-08-14T07:21:39.019Z,10.10
2022-08-14T07:24:05.901Z,9.70
2022-08-14T07:26:36.603Z,9.23
2022-08-14T07:29:05.749Z,10.00
2022-08-14T07:31:33.501Z,9.20
2022-08-14T07:34:00.221Z,8.98
2022-08-14T07:36:31.254Z,9.10
2022-08-14T07:39:03.181Z,9.30
2022-08-14T07:41:33.590Z,8.90
2022-08-14T07:44:28.631Z,8.68
2022-08-14T07:46:47.820Z,9.38
2022-08-14T07:49:17.617Z,9.63
2022-08-14T07:51:45.395Z,8.60
2022-08-14T07:54:12.541Z,9.20
2022-08-14T07:56:47.716Z,9.98
2022-08-14T07:59:18.563Z,9.35
2022-08-14T08:01:48.200Z,8.63
2022-08-14T08:04:27.086Z,8.43
2022-08-14T08:06:55.886Z,9.55
2022-08-14T08:09:31.943Z,9.05
2022-08-14T08:12:09.214Z,9.80
2022-08-14T08:14:56.675Z,9.77
2022-08-14T08:17:34.480Z,9.37
2022-08-14T08:20:01.689Z,9.82
2022-08-14T08:22:28.246Z,8.70
2022-08-14T08:24:59.349Z,8.98
2022-08-14T08:27:27.420Z,8.88
2022-08-14T08:30:04.568Z,8.70
2022-08-14T08:32:42.065Z,8.43
2022-08-14T08:35:46.372Z,8.70
2022-08-14T08:39:18.226Z,7.93
2022-08-14T08:41:05.892Z,8.15
2022-08-14T08:43:39.378Z,8.77
2022-08-14T08:46:23.343Z,8.55
2022-08-14T08:51:34.225Z,7.97
2022-08-14T08:54:20.027Z,9.50
2022-08-14T08:56:53.212Z,9.10
2022-08-14T08:59:34.055Z,8.45
2022-08-14T09:02:04.975Z,7.95
2022-08-14T09:04:45.292Z,7.60
2022-08-14T09:07:25.630Z,8.10
2022-08-14T09:09:58.519Z,8.15
2022-08-14T09:12:27.032Z,8.02
2022-08-14T09:14:55.767Z,7.88
2022-08-14T09:17:26.031Z,9.88
2022-08-14T09:19:53.799Z,8.27
2022-08-14T09:22:35.509Z,8.85
2022-08-14T09:25:06.903Z,8.10
2022-08-14T09:27:35.922Z,8.15
2022-08-14T09:30:31.692Z,8.07
2022-08-14T09:33:12.747Z,8.30
2022-08-14T09:35:56.673Z,7.88
2022-08-14T09:38:46.440Z,8.60
2022-08-14T09:42:17.799Z,8.70
2022-08-14T09:44:49.835Z,7.57
2022-08-14T09:47:17.546Z,7.47
2022-08-14T09:49:53.320Z,7.40
2022-08-14T09:52:33.267Z,7.72
2022-08-14T09:55:01.088Z,7.70
2022-08-14T09:57:31.370Z,8.43
2022-08-14T09:59:58.927Z,9.10
2022-08-14T10:02:34.429Z,7.75
2022-08-14T10:05:03.377Z,7.95
2022-08-14T10:07:37.512Z,8.32
2022-08-14T10:10:22.956Z,7.80
2022-08-14T10:12:53.208Z,7.40
2022-08-14T10:15:25.290Z,7.43
2022-08-14T10:18:09.376Z,7.88
2022-08-14T10:20:51.670Z,7.75
2022-08-14T10:23:20.821Z,6.45
2022-08-14T10:25:51.901Z,6.63
2022-08-14T10:28:51.429Z,5.68
2022-08-14T10:31:29.572Z,5.72
2022-08-14T10:34:12.946Z,6.35
2022-08-14T10:36:50.240Z,5.40
2022-08-14T10:39:28.979Z,5.95
2022-08-14T10:42:22.440Z,5.95
2022-08-14T10:44:52.789Z,5.90
2022-08-14T10:47:41.429Z,6.13
2022-08-14T10:50:07.820Z,5.65
2022-08-14T10:52:42.447Z,6.15
2022-08-14T10:55:15.333Z,5.40
2022-08-14T10:58:11.596Z,6.05
2022-08-14T11:00:47.317Z,5.60
2022-08-14T11:03:15.741Z,6.28
2022-08-14T11:05:54.924Z,6.18
2022-08-14T11:08:34.094Z,5.68
2022-08-14T11:11:04.077Z,6.40
2022-08-14T11:13:31.762Z,6.03
2022-08-14T11:16:01.282Z,6.00
2022-08-14T11:18:36.044Z,6.53
2022-08-14T11:21:08.221Z,5.80
2022-08-14T11:23:39.825Z,5.80
2022-08-14T11:26:10.183Z,5.68
2022-08-14T11:28:47.683Z,5.30
2022-08-14T11:31:19.562Z,4.13
2022-08-14T11:33:51.300Z,5.10
2022-08-14T11:36:22.605Z,4.53
2022-08-14T11:38:49.581Z,4.85
2022-08-14T11:41:18.211Z,3.95
2022-08-14T11:43:55.909Z,7.50
2022-08-14T11:46:30.479Z,4.25
2022-08-14T11:49:05.843Z,5.70
2022-08-14T11:51:36.437Z,4.78
2022-08-14T11:54:20.131Z,4.88
2022-08-14T11:56:50.741Z,4.03
2022-08-14T11:59:19.785Z,4.40
2022-08-14T12:01:54.945Z,3.97
2022-08-14T12:04:32.020Z,3.58
2022-08-14T12:07:01.257Z,3.47
2022-08-14T12:09:36.192Z,4.25
2022-08-14T12:12:16.206Z,3.80
2022-08-14T12:15:01.567Z,3.72
2022-08-14T12:17:38.102Z,6.20
2022-08-14T12:20:15.198Z,4.05
2022-08-14T12:22:52.356Z,3.67
2022-08-14T12:25:24.566Z,3.90
2022-08-14T12:27:58.824Z,3.75
2022-08-14T12:30:45.113Z,3.50
2022-08-14T12:33:33.771Z,3.40
2022-08-14T12:36:06.124Z,3.53
2022-08-14T12:38:37.500Z,3.10
2022-08-14T12:41:10.386Z,6.22
2022-08-14T12:43:51.792Z,3.55
2022-08-14T12:46:27.116Z,3.38
2022-08-14T12:48:57.069Z,3.45
2022-08-14T12:51:28.178Z,3.45
2022-08-14T12:53:59.207Z,3.50
2022-08-14T12:56:33.928Z,3.85
2022-08-14T12:59:01.689Z,4.75
2022-08-14T13:01:56.785Z,3.75
2022-08-14T13:04:18.779Z,4.70
2022-08-14T13:06:50.746Z,4.00
2022-08-14T13:09:19.861Z,3.47
2022-08-14T13:11:59.011Z,3.75
2022-08-14T13:14:41.803Z,5.18
2022-08-14T13:17:10.960Z,3.83
2022-08-14T13:19:40.654Z,5.05
2022-08-14T13:24:47.947Z,4.82
2022-08-14T13:27:18.753Z,4.07
2022-08-14T13:29:47.414Z,4.07
2022-08-14T13:32:15.186Z,4.03
2022-08-14T13:34:46.085Z,3.92
2022-08-14T13:37:14.952Z,4.75
2022-08-14T13:39:53.710Z,4.38
2022-08-14T13:42:26.379Z,11.70
2022-08-14T13:44:58.353Z,3.58
2022-08-14T13:47:30.581Z,5.53
2022-08-14T13:50:00.545Z,3.83
2022-08-14T13:52:52.396Z,3.92
2022-08-14T13:55:28.633Z,4.15
2022-08-14T13:58:03.233Z,3.97
2022-08-14T14:00:52.887Z,4.93
2022-08-14T14:03:23.009Z,4.55
2022-08-14T14:05:54.384Z,3.92
2022-08-14T14:08:46.119Z,5.85
2022-08-14T14:11:11.012Z,4.60
2022-08-14T14:13:44.760Z,4.20
2022-08-14T14:16:15.103Z,6.57
2022-08-14T14:18:43.884Z,4.25
2022-08-14T14:21:13.972Z,4.70
2022-08-14T14:23:42.898Z,4.53
2022-08-14T14:26:14.037Z,4.45
2022-08-14T14:28:42.297Z,4.28
2022-08-14T14:31:11.640Z,4.25
2022-08-14T14:33:48.887Z,4.95
2022-08-14T14:36:26.602Z,4.40
2022-08-14T14:38:59.468Z,4.75
2022-08-14T14:41:37.741Z,5.63
2022-08-14T14:44:09.117Z,5.17
2022-08-14T14:46:38.421Z,4.50
2022-08-14T14:49:14.232Z,4.72
2022-08-14T14:51:46.929Z,5.45
2022-08-14T14:54:19.715Z,4.57
2022-08-14T14:57:00.303Z,5.28
2022-08-14T14:59:30.430Z,4.97
2022-08-14T15:02:07.751Z,4.82
2022-08-14T15:04:37.853Z,4.40
2022-08-14T15:09:34.229Z,4.97
2022-08-14T15:12:02.623Z,4.53
2022-08-14T15:14:55.589Z,4.70
2022-08-14T15:17:24.298Z,5.13
2022-08-14T15:19:56.187Z,5.05
2022-08-14T15:22:25.321Z,4.72
2022-08-14T15:24:52.057Z,5.20
2022-08-14T15:27:26.234Z,5.05
2022-08-14T15:29:53.623Z,4.63
2022-08-14T15:32:23.138Z,4.80
2022-08-14T15:34:52.626Z,4.93
2022-08-14T15:37:22.772Z,5.00
2022-08-14T15:39:50.401Z,4.70
2022-08-14T15:44:57.375Z,6.03
2022-08-14T15:47:28.079Z,4.90
2022-08-14T15:52:32.556Z,5.10
2022-08-14T15:55:13.146Z,5.05
2022-08-14T15:58:02.128Z,5.47
2022-08-14T16:00:51.739Z,5.25
2022-08-14T16:03:26.977Z,5.55
2022-08-14T16:06:01.937Z,4.93
2022-08-14T16:08:30.308Z,5.43
2022-08-14T16:10:59.804Z,4.68
2022-08-14T16:13:39.177Z,4.38
2022-08-14T16:16:47.771Z,5.13
2022-08-14T16:18:58.162Z,5.13
2022-08-14T16:21:29.551Z,4.70
2022-08-14T16:24:00.414Z,6.10
2022-08-14T16:26:29.219Z,5.10
2022-08-14T16:29:04.470Z,5.07
2022-08-14T16:31:36.290Z,4.47
2022-08-14T16:34:44.118Z,4.35
2022-08-14T16:36:53.221Z,4.45
2022-08-14T16:39:22.645Z,5.05
2022-08-14T16:41:52.304Z,4.30
2022-08-14T16:44:33.593Z,4.20
2022-08-14T16:47:03.903Z,3.90
2022-08-14T16:50:02.548Z,4.97
2022-08-14T16:52:25.483Z,5.72
2022-08-14T16:55:11.077Z,4.80
2022-08-14T16:57:55.093Z,5.13
2022-08-14T17:00:43.727Z,5.70
2022-08-14T17:03:12.504Z,6.50
2022-08-14T17:05:41.796Z,5.20
2022-08-14T17:08:32.450Z,12.07
2022-08-14T17:11:04.600Z,6.68
2022-08-14T17:13:48.040Z,6.18
2022-08-14T17:16:24.692Z,6.53
2022-08-14T17:19:03.794Z,6.90
2022-08-14T17:21:37.661Z,6.37
2022-08-14T17:24:57.980Z,5.07
2022-08-14T17:26:55.155Z,5.65
2022-08-14T17:29:29.384Z,6.00
2022-08-14T17:32:03.305Z,5.15
2022-08-14T17:34:51.069Z,5.00
2022-08-14T17:37:45.174Z,4.78
2022-08-14T17:40:23.762Z,5.30
2022-08-14T17:42:55.785Z,5.28
2022-08-14T17:45:43.079Z,7.88
2022-08-14T17:51:14.240Z,4.38
2022-08-14T17:53:52.860Z,5.40
2022-08-14T17:56:20.740Z,5.20
2022-08-14T17:58:49.444Z,4.72
2022-08-14T18:01:23.479Z,5.03
2022-08-14T18:03:53.726Z,8.93
2022-08-14T18:06:40.081Z,4.60
2022-08-14T18:09:25.324Z,4.90
2022-08-14T18:11:55.299Z,4.53
2022-08-14T18:14:31.884Z,4.73
2022-08-14T18:17:00.347Z,4.90
2022-08-14T18:19:29.837Z,4.82
2022-08-14T18:21:58.580Z,4.83
2022-08-14T18:24:29.624Z,5.90
2022-08-14T18:27:11.823Z,5.25
2022-08-14T18:29:55.274Z,5.00
2022-08-14T18:32:31.522Z,5.47
2022-08-14T18:35:11.341Z,4.85
2022-08-14T18:37:41.356Z,4.50
2022-08-14T18:40:20.118Z,5.10
2022-08-14T18:42:47.983Z,4.82
2022-08-14T18:45:28.827Z,4.90
2022-08-14T18:48:19.219Z,5.18
2022-08-14T18:50:55.927Z,5.15
2022-08-14T18:53:25.216Z,5.20
2022-08-14T18:56:02.114Z,6.55
2022-08-14T18:59:02.638Z,4.65
2022-08-14T19:01:30.068Z,6.63
2022-08-14T19:03:59.102Z,7.80
2022-08-14T19:06:37.531Z,5.82
2022-08-14T19:09:05.231Z,5.57
2022-08-14T19:11:32.385Z,5.75
2022-08-14T19:14:05.081Z,6.00
2022-08-14T19:16:34.284Z,5.53
2022-08-14T19:19:04.075Z,7.25
2022-08-14T19:21:35.037Z,7.45
2022-08-14T19:24:27.619Z,6.93
2022-08-14T19:27:19.562Z,6.10
2022-08-14T19:29:51.273Z,6.38
2022-08-14T19:32:36.654Z,7.38
2022-08-14T19:35:16.983Z,6.90
2022-08-14T19:37:52.778Z,7.05
2022-08-14T19:40:41.872Z,7.40
2022-08-14T19:43:09.885Z,7.95
2022-08-14T19:45:38.331Z,7.90
2022-08-14T19:48:12.690Z,11.10
2022-08-14T19:50:41.097Z,9.55
2022-08-14T19:53:17.220Z,11.35
2022-08-14T19:55:56.992Z,10.60
2022-08-14T19:58:54.560Z,13.75
2022-08-14T20:01:36.735Z,12.52
2022-08-14T20:04:46.195Z,7.90
2022-08-14T20:06:57.626Z,10.48
2022-08-14T20:11:03.750Z,10.23
2022-08-14T20:12:28.415Z,10.40
2022-08-14T20:15:15.468Z,11.82
2022-08-14T20:17:52.754Z,9.98
2022-08-14T20:20:31.846Z,8.48
2022-08-14T20:23:10.873Z,9.98
2022-08-14T20:25:45.231Z,8.73
2022-08-14T20:28:30.693Z,11.38
2022-08-14T20:31:18.126Z,10.10
2022-08-14T20:34:03.475Z,10.52
2022-08-14T20:36:30.183Z,9.85
2022-08-14T20:38:58.149Z,12.25
2022-08-14T20:41:25.458Z,8.77
2022-08-14T20:44:11.866Z,9.15
2022-08-14T20:46:39.534Z,8.35
2022-08-14T20:49:16.202Z,9.38
2022-08-14T20:51:55.029Z,8.00
2022-08-14T20:54:36.289Z,8.32
2022-08-14T20:57:14.095Z,10.88
2022-08-14T20:59:46.985Z,8.18
2022-08-14T21:02:46.729Z,8.60
2022-08-14T21:05:21.213Z,8.63
2022-08-14T21:07:50.761Z,12.15
2022-08-14T21:14:09.121Z,9.82
2022-08-14T21:15:57.672Z,7.88
2022-08-14T21:18:29.452Z,7.75
2022-08-14T21:20:57.547Z,13.10
2022-08-14T21:23:24.565Z,9.25
2022-08-14T21:25:59.636Z,8.38
2022-08-14T21:28:30.091Z,7.57
2022-08-14T21:30:57.805Z,8.73
2022-08-14T21:33:25.451Z,8.25
2022-08-14T21:35:54.761Z,9.18
2022-08-14T21:38:34.000Z,6.63
2022-08-14T21:41:41.258Z,7.05
2022-08-14T21:44:17.071Z,7.50
2022-08-14T21:46:47.607Z,8.18
2022-08-14T21:49:17.917Z,7.75
2022-08-14T21:51:53.674Z,7.88
2022-08-14T21:54:32.231Z,10.23
2022-08-14T21:57:17.324Z,9.30
2022-08-14T21:59:45.300Z,8.98
2022-08-14T22:02:33.437Z,9.20
2022-08-14T22:04:58.954Z,9.50
2022-08-14T22:07:29.359Z,11.70
2022-08-14T22:09:56.016Z,9.02
2022-08-14T22:12:57.180Z,8.75
2022-08-14T22:15:13.329Z,9.52
2022-08-14T22:17:44.405Z,10.60
2022-08-14T22:20:12.442Z,8.98
2022-08-14T22:22:43.653Z,8.45
2022-08-14T22:25:16.119Z,9.50
2022-08-14T22:27:56.167Z,7.78
2022-08-14T22:30:23.631Z,6.90
2022-08-14T22:32:56.552Z,7.03
2022-08-14T22:35:25.012Z,7.07
2022-08-14T22:38:32.615Z,6.55
2022-08-14T22:41:14.884Z,7.80
2022-08-14T22:43:28.130Z,8.13
2022-08-14T22:46:02.043Z,7.43
2022-08-14T22:48:29.622Z,8.23
2022-08-14T22:50:56.511Z,7.55
2022-08-14T22:53:24.179Z,7.28
2022-08-14T22:55:56.699Z,7.30
2022-08-14T22:58:31.557Z,9.35
2022-08-14T23:01:02.422Z,7.15
2022-08-14T23:03:34.089Z,7.80
2022-08-14T23:06:02.279Z,7.82
2022-08-14T23:09:00.257Z,8.93
2022-08-14T23:11:15.866Z,8.48
2022-08-14T23:13:43.372Z,6.68
2022-08-14T23:16:19.837Z,7.18
2022-08-14T23:18:53.993Z,7.63
2022-08-14T23:21:24.671Z,8.50
2022-08-14T23:23:54.862Z,7.57
2022-08-14T23:26:49.847Z,9.60
2022-08-14T23:29:09.117Z,8.23
2022-08-14T23:31:39.353Z,8.23
2022-08-14T23:34:08.154Z,7.72
2022-08-14T23:36:52.904Z,13.77
2022-08-14T23:39:32.885Z,8.25
2022-08-14T23:42:08.504Z,8.55
2022-08-14T23:44:37.701Z,7.47
2022-08-14T23:47:11.682Z,8.98
2022-08-14T23:50:00.567Z,8.13
2022-08-14T23:52:57.379Z,11.20
2022-08-14T23:55:17.426Z,8.93
2022-08-14T23:57:57.624Z,9.32
